createdAt,value
2019-02-03T00:01:51.238Z,53.93
2019-02-03T00:04:21.443Z,55.87
2019-02-03T00:07:02.688Z,55.77
2019-02-03T00:09:23.543Z,53.80
2019-02-03T00:11:53.752Z,55.83
2019-02-03T00:14:23.999Z,55.27
2019-02-03T00:16:54.180Z,49.93
2019-02-03T00:19:24.390Z,52.10
2019-02-03T00:21:54.740Z,54.50
2019-02-03T00:24:24.947Z,55.70
2019-02-03T00:26:55.176Z,56.63
2019-02-03T00:29:25.450Z,56.27
2019-02-03T00:31:55.647Z,59.90
2019-02-03T00:34:25.822Z,56.00
2019-02-03T00:36:56.019Z,60.70
2019-02-03T00:39:26.221Z,57.27
2019-02-03T00:41:59.927Z,56.67
2019-02-03T00:44:30.167Z,57.10
2019-02-03T00:47:00.359Z,56.50
2019-02-03T00:49:30.621Z,55.57
2019-02-03T00:52:00.871Z,56.63
2019-02-03T00:54:31.509Z,54.87
2019-02-03T00:57:02.808Z,57.60
2019-02-03T00:59:33.012Z,59.10
2019-02-03T01:02:03.395Z,58.90
2019-02-03T01:04:33.579Z,60.27
2019-02-03T01:07:04.865Z,60.13
2019-02-03T01:09:35.072Z,59.57
2019-02-03T01:12:05.258Z,62.07
2019-02-03T01:14:35.511Z,61.83
2019-02-03T01:17:05.687Z,59.90
2019-02-03T01:19:36.272Z,62.50
2019-02-03T01:22:06.479Z,61.97
2019-02-03T01:24:36.684Z,62.17
2019-02-03T01:27:06.887Z,65.40
2019-02-03T01:29:37.051Z,64.77
2019-02-03T01:32:07.383Z,66.33
2019-02-03T01:34:37.715Z,68.67
2019-02-03T01:37:09.552Z,66.37
2019-02-03T01:39:39.927Z,66.57
2019-02-03T01:42:10.198Z,66.33
2019-02-03T01:44:40.348Z,68.60
2019-02-03T01:47:10.607Z,67.37
2019-02-03T01:49:40.775Z,67.07
2019-02-03T01:52:11.060Z,71.43
2019-02-03T01:54:41.258Z,64.20
2019-02-03T01:57:11.660Z,65.63
2019-02-03T01:59:41.867Z,67.20
2019-02-03T02:02:12.031Z,70.87
2019-02-03T02:04:42.387Z,69.73
2019-02-03T02:07:12.631Z,64.77
2019-02-03T02:09:42.821Z,68.00
2019-02-03T02:12:13.027Z,70.87
2019-02-03T02:14:44.702Z,66.40
2019-02-03T02:17:16.183Z,65.77
2019-02-03T02:19:46.408Z,63.60
2019-02-03T02:22:16.618Z,70.40
2019-02-03T02:24:46.767Z,65.93
2019-02-03T02:27:16.919Z,70.10
2019-02-03T02:29:47.172Z,68.53
2019-02-03T02:32:17.568Z,67.60
2019-02-03T02:34:47.743Z,67.90
2019-02-03T02:37:18.191Z,69.90
2019-02-03T02:39:49.514Z,64.53
2019-02-03T02:42:19.670Z,66.13
2019-02-03T02:44:49.953Z,69.00
2019-02-03T02:47:21.116Z,68.20
2019-02-03T02:49:51.569Z,71.23
2019-02-03T02:52:21.756Z,66.80
2019-02-03T02:54:54.653Z,68.33
2019-02-03T02:57:24.827Z,66.53
2019-02-03T02:59:55.023Z,68.90
2019-02-03T03:02:25.560Z,67.10
2019-02-03T03:04:55.726Z,62.30
2019-02-03T03:07:25.964Z,67.77
2019-02-03T03:09:56.115Z,68.50
2019-02-03T03:12:26.275Z,67.47
2019-02-03T03:14:56.968Z,65.77
2019-02-03T03:17:27.143Z,69.20
2019-02-03T03:19:57.305Z,67.13
2019-02-03T03:22:27.510Z,66.30
2019-02-03T03:24:57.672Z,66.37
2019-02-03T03:27:29.460Z,65.67
2019-02-03T03:29:59.704Z,66.50
2019-02-03T03:32:29.891Z,65.23
2019-02-03T03:35:00.480Z,63.97
2019-02-03T03:37:30.781Z,66.87
2019-02-03T03:40:02.490Z,62.77
2019-02-03T03:42:32.647Z,66.63
2019-02-03T03:45:02.834Z,64.30
2019-02-03T03:47:33.004Z,64.63
2019-02-03T03:50:03.183Z,62.53
2019-02-03T03:52:34.927Z,64.27
2019-02-03T03:55:05.636Z,66.77
2019-02-03T03:57:35.800Z,67.47
2019-02-03T04:00:09.729Z,63.57
2019-02-03T04:02:39.899Z,64.30
2019-02-03T04:05:10.885Z,63.60
2019-02-03T04:07:41.281Z,62.57
2019-02-03T04:10:12.740Z,69.57
2019-02-03T04:12:42.915Z,62.97
2019-02-03T04:15:15.358Z,61.50
2019-02-03T04:17:45.552Z,60.70
2019-02-03T04:20:27.351Z,60.73
2019-02-03T04:22:57.599Z,63.30
2019-02-03T04:25:27.887Z,64.57
2019-02-03T04:27:58.437Z,64.77
2019-02-03T04:30:28.638Z,61.07
2019-02-03T04:32:59.011Z,60.73
2019-02-03T04:35:29.187Z,61.53
2019-02-03T04:37:59.347Z,58.70
2019-02-03T04:40:29.903Z,59.17
2019-02-03T04:43:00.099Z,60.77
2019-02-03T04:45:30.302Z,65.17
2019-02-03T04:48:00.485Z,63.83
2019-02-03T04:50:30.651Z,62.73
2019-02-03T04:53:00.831Z,66.80
2019-02-03T04:55:31.001Z,60.10
2019-02-03T04:58:01.301Z,65.37
2019-02-03T05:00:31.451Z,63.43
2019-02-03T05:03:01.631Z,66.37
2019-02-03T05:05:31.854Z,64.60
2019-02-03T05:08:02.023Z,61.67
2019-02-03T05:10:32.356Z,63.67
2019-02-03T05:13:02.547Z,62.97
2019-02-03T05:15:32.724Z,62.40
2019-02-03T05:18:02.916Z,62.20
2019-02-03T05:20:33.383Z,65.77
2019-02-03T05:23:03.595Z,61.83
2019-02-03T05:25:33.777Z,66.53
2019-02-03T05:28:03.958Z,65.67
2019-02-03T05:30:35.000Z,64.53
2019-02-03T05:33:05.697Z,59.97
2019-02-03T05:35:35.981Z,60.50
2019-02-03T05:38:06.264Z,57.37
2019-02-03T05:40:36.477Z,61.73
2019-02-03T05:43:06.675Z,65.10
2019-02-03T05:45:37.406Z,64.77
2019-02-03T05:48:07.592Z,61.53
2019-02-03T05:50:37.914Z,64.70
2019-02-03T05:53:08.079Z,62.67
2019-02-03T05:55:38.278Z,66.70
2019-02-03T05:58:08.824Z,67.87
2019-02-03T06:00:41.284Z,66.80
2019-02-03T06:03:11.556Z,67.37
2019-02-03T06:05:41.723Z,65.20
2019-02-03T06:08:11.902Z,69.57
2019-02-03T06:10:42.456Z,66.57
2019-02-03T06:13:12.719Z,66.60
2019-02-03T06:15:42.902Z,68.37
2019-02-03T06:18:14.244Z,68.67
2019-02-03T06:20:44.411Z,64.27
2019-02-03T06:23:14.631Z,61.03
2019-02-03T06:25:44.803Z,63.77
2019-02-03T06:28:17.221Z,63.30
2019-02-03T06:31:08.544Z,63.40
2019-02-03T06:33:38.723Z,62.87
2019-02-03T06:36:09.779Z,63.60
2019-02-03T06:38:40.519Z,59.53
2019-02-03T06:41:10.759Z,62.07
2019-02-03T06:43:40.982Z,62.27
2019-02-03T06:46:36.348Z,58.93
2019-02-03T06:49:25.469Z,55.57
2019-02-03T06:51:55.797Z,55.87
2019-02-03T06:54:25.983Z,57.27
2019-02-03T06:56:56.214Z,56.80
2019-02-03T06:59:26.475Z,55.07
2019-02-03T07:01:56.647Z,55.40
2019-02-03T07:04:26.811Z,54.60
2019-02-03T07:06:57.031Z,53.53
2019-02-03T07:09:27.227Z,52.80
2019-02-03T07:11:57.416Z,55.27
2019-02-03T07:14:27.654Z,52.57
2019-02-03T07:16:58.298Z,51.17
2019-02-03T07:19:28.520Z,54.37
2019-02-03T07:21:58.711Z,53.10
2019-02-03T07:24:29.863Z,49.00
2019-02-03T07:27:00.049Z,51.07
2019-02-03T07:29:30.632Z,49.27
2019-02-03T07:32:00.823Z,50.60
2019-02-03T07:34:30.974Z,50.00
2019-02-03T07:37:01.236Z,48.03
2019-02-03T07:39:31.443Z,45.83
2019-02-03T07:42:02.107Z,47.70
2019-02-03T07:44:32.363Z,45.20
2019-02-03T07:47:02.614Z,47.13
2019-02-03T07:49:32.860Z,46.60
2019-02-03T07:52:03.053Z,41.23
2019-02-03T07:54:33.219Z,40.83
2019-02-03T07:57:03.436Z,40.40
2019-02-03T07:59:33.612Z,37.00
2019-02-03T08:02:03.848Z,35.43
2019-02-03T08:04:35.340Z,33.87
2019-02-03T08:07:05.736Z,32.07
2019-02-03T08:09:35.915Z,32.50
2019-02-03T08:12:06.123Z,28.67
2019-02-03T08:14:36.286Z,28.63
2019-02-03T08:17:06.470Z,30.00
2019-02-03T08:19:36.692Z,27.67
2019-02-03T08:22:07.160Z,27.97
2019-02-03T08:24:37.422Z,27.17
2019-02-03T08:27:07.677Z,27.70
2019-02-03T08:29:37.832Z,24.50
2019-02-03T08:32:07.992Z,23.97
2019-02-03T08:34:38.679Z,22.90
2019-02-03T08:37:08.939Z,22.10
2019-02-03T08:39:39.103Z,21.00
2019-02-03T08:42:09.294Z,21.80
2019-02-03T08:44:39.522Z,21.80
2019-02-03T08:47:09.773Z,19.93
2019-02-03T08:49:40.061Z,19.10
2019-02-03T08:52:10.231Z,18.53
2019-02-03T08:54:56.786Z,19.90
2019-02-03T08:57:12.336Z,18.10
2019-02-03T08:59:42.608Z,16.60
2019-02-03T09:02:12.864Z,18.73
2019-02-03T09:04:43.178Z,18.10
2019-02-03T09:07:13.411Z,16.40
2019-02-03T09:09:43.572Z,18.50
2019-02-03T09:12:15.785Z,16.20
2019-02-03T09:14:45.577Z,16.60
2019-02-03T09:17:16.063Z,16.77
2019-02-03T09:19:47.825Z,16.03
2019-02-03T09:22:17.978Z,15.67
2019-02-03T09:24:48.237Z,14.90
2019-02-03T09:27:18.419Z,14.93
2019-02-03T09:29:48.616Z,13.93
2019-02-03T09:32:18.895Z,13.93
2019-02-03T09:34:49.107Z,13.70
2019-02-03T09:37:19.280Z,12.43
2019-02-03T09:39:49.821Z,12.37
2019-02-03T09:42:19.977Z,14.20
2019-02-03T09:44:50.247Z,12.93
2019-02-03T09:47:20.400Z,12.53
2019-02-03T09:49:50.653Z,12.13
2019-02-03T09:52:21.241Z,11.70
2019-02-03T09:54:51.707Z,11.93
2019-02-03T09:57:21.941Z,11.77
2019-02-03T09:59:52.135Z,11.90
2019-02-03T10:02:22.351Z,11.93
2019-02-03T10:04:52.600Z,11.30
2019-02-03T10:07:22.791Z,10.17
2019-02-03T10:09:52.987Z,10.50
2019-02-03T10:12:23.182Z,10.53
2019-02-03T10:14:53.389Z,10.33
2019-02-03T10:17:23.600Z,10.10
2019-02-03T10:19:54.141Z,11.07
2019-02-03T10:22:24.287Z,9.40
2019-02-03T10:24:54.523Z,10.27
2019-02-03T10:27:25.891Z,9.33
2019-02-03T10:29:56.083Z,9.50
2019-02-03T10:32:26.639Z,10.03
2019-02-03T10:34:56.807Z,8.93
2019-02-03T10:37:26.973Z,9.10
2019-02-03T10:39:57.239Z,10.17
2019-02-03T10:42:27.539Z,7.93
2019-02-03T10:44:58.077Z,8.63
2019-02-03T10:47:28.364Z,8.10
2019-02-03T10:50:01.352Z,8.37
2019-02-03T10:52:30.469Z,7.60
2019-02-03T10:55:00.628Z,7.83
2019-02-03T10:57:30.987Z,7.90
2019-02-03T11:00:01.164Z,7.80
2019-02-03T11:02:31.608Z,7.73
2019-02-03T11:05:01.872Z,7.50
2019-02-03T11:07:32.063Z,6.60
2019-02-03T11:10:02.236Z,6.83
2019-02-03T11:12:32.786Z,6.67
2019-02-03T11:15:02.972Z,6.77
2019-02-03T11:17:33.395Z,7.50
2019-02-03T11:20:04.402Z,6.03
2019-02-03T11:22:34.580Z,6.60
2019-02-03T11:25:05.338Z,6.97
2019-02-03T11:27:36.049Z,6.70
2019-02-03T11:30:10.451Z,6.30
2019-02-03T11:32:40.844Z,5.43
2019-02-03T11:35:12.781Z,4.67
2019-02-03T11:37:44.891Z,5.10
2019-02-03T11:40:17.240Z,5.60
2019-02-03T11:42:47.507Z,5.17
2019-02-03T11:45:21.200Z,4.80
2019-02-03T11:47:51.360Z,5.83
2019-02-03T11:50:24.493Z,5.70
2019-02-03T11:52:54.930Z,5.97
2019-02-03T11:55:25.218Z,5.20
2019-02-03T11:57:55.569Z,5.60
2019-02-03T12:00:27.438Z,5.97
2019-02-03T12:02:57.629Z,5.63
2019-02-03T12:05:28.233Z,5.80
2019-02-03T12:07:58.407Z,5.20
2019-02-03T12:10:29.880Z,5.57
2019-02-03T12:13:00.571Z,4.53
2019-02-03T12:15:31.216Z,6.07
2019-02-03T12:18:01.841Z,6.30
2019-02-03T12:20:33.361Z,5.13
2019-02-03T12:23:05.050Z,5.70
2019-02-03T12:25:38.224Z,5.53
2019-02-03T12:28:08.831Z,6.40
2019-02-03T12:30:39.363Z,5.10
2019-02-03T12:33:09.590Z,5.10
2019-02-03T12:35:39.776Z,5.37
2019-02-03T12:38:11.015Z,5.43
2019-02-03T12:40:41.469Z,5.30
2019-02-03T12:43:11.631Z,4.37
2019-02-03T12:45:41.816Z,5.50
2019-02-03T12:48:11.993Z,5.00
2019-02-03T12:50:42.193Z,5.23
2019-02-03T12:53:15.567Z,4.77
2019-02-03T12:55:45.767Z,5.50
2019-02-03T12:58:15.918Z,4.70
2019-02-03T13:00:49.370Z,4.63
2019-02-03T13:03:18.103Z,5.67
2019-02-03T13:05:48.760Z,4.83
2019-02-03T13:08:18.960Z,5.33
2019-02-03T13:10:49.156Z,3.93
2019-02-03T13:13:19.357Z,4.10
2019-02-03T13:15:51.744Z,4.77
2019-02-03T13:18:22.280Z,5.57
2019-02-03T13:20:52.531Z,3.90
2019-02-03T13:23:22.778Z,4.33
2019-02-03T13:25:52.983Z,4.90
2019-02-03T13:28:23.240Z,4.73
2019-02-03T13:30:53.837Z,4.10
2019-02-03T13:33:24.267Z,4.00
2019-02-03T13:35:54.447Z,3.77
2019-02-03T13:38:24.704Z,3.50
2019-02-03T13:40:54.891Z,3.23
2019-02-03T13:43:25.412Z,3.37
2019-02-03T13:45:56.675Z,3.30
2019-02-03T13:48:26.911Z,3.30
2019-02-03T13:50:57.188Z,3.33
2019-02-03T13:53:27.354Z,3.57
2019-02-03T13:55:57.827Z,3.10
2019-02-03T13:58:36.516Z,3.30
2019-02-03T14:01:00.091Z,3.10
2019-02-03T14:03:30.247Z,3.30
2019-02-03T14:06:00.457Z,4.27
2019-02-03T14:08:31.740Z,3.63
2019-02-03T14:11:02.045Z,3.97
2019-02-03T14:13:32.249Z,3.60
2019-02-03T14:16:02.411Z,3.70
2019-02-03T14:18:32.564Z,3.40
2019-02-03T14:21:02.844Z,3.80
2019-02-03T14:23:33.119Z,3.37
2019-02-03T14:26:03.520Z,4.20
2019-02-03T14:28:33.800Z,3.67
2019-02-03T14:31:04.156Z,3.83
2019-02-03T14:33:34.603Z,3.90
2019-02-03T14:36:05.388Z,4.20
2019-02-03T14:38:35.589Z,4.00
2019-02-03T14:41:05.882Z,3.97
2019-02-03T14:43:36.132Z,4.10
2019-02-03T14:46:06.609Z,3.90
2019-02-03T14:48:36.765Z,4.23
2019-02-03T14:51:07.057Z,4.73
2019-02-03T14:53:37.245Z,3.70
2019-02-03T14:56:07.436Z,3.60
2019-02-03T14:58:37.888Z,3.53
2019-02-03T15:01:08.057Z,3.80
2019-02-03T15:03:38.350Z,4.30
2019-02-03T15:06:08.571Z,4.20
2019-02-03T15:08:38.803Z,4.70
2019-02-03T15:11:09.563Z,3.63
2019-02-03T15:13:39.718Z,4.47
2019-02-03T15:16:09.903Z,5.57
2019-02-03T15:18:40.133Z,4.13
2019-02-03T15:21:11.257Z,5.10
2019-02-03T15:23:43.011Z,4.60
2019-02-03T15:26:13.311Z,4.90
2019-02-03T15:28:45.311Z,4.27
2019-02-03T15:31:15.565Z,4.60
2019-02-03T15:33:45.767Z,4.57
2019-02-03T15:36:17.809Z,3.87
2019-02-03T15:38:48.152Z,3.90
2019-02-03T15:41:19.802Z,4.03
2019-02-03T15:43:49.963Z,4.80
2019-02-03T15:46:20.121Z,4.47
2019-02-03T15:48:50.395Z,5.00
2019-02-03T15:51:20.789Z,4.50
2019-02-03T15:53:51.008Z,4.20
2019-02-03T15:56:21.224Z,5.30
2019-02-03T15:58:51.432Z,4.00
2019-02-03T16:01:21.876Z,3.77
2019-02-03T16:03:52.182Z,4.77
2019-02-03T16:06:22.469Z,4.80
2019-02-03T16:08:52.658Z,4.77
2019-02-03T16:11:22.815Z,4.30
2019-02-03T16:13:53.418Z,3.87
2019-02-03T16:16:23.607Z,3.90
2019-02-03T16:18:53.777Z,3.60
2019-02-03T16:21:23.956Z,4.07
2019-02-03T16:23:54.123Z,4.10
2019-02-03T16:26:24.793Z,4.40
2019-02-03T16:28:54.983Z,4.17
2019-02-03T16:31:26.215Z,4.90
2019-02-03T16:33:56.513Z,4.70
2019-02-03T16:36:27.161Z,4.83
2019-02-03T16:38:57.524Z,3.80
2019-02-03T16:41:27.852Z,4.30
2019-02-03T16:43:58.087Z,4.87
2019-02-03T16:46:28.343Z,4.93
2019-02-03T16:48:58.627Z,5.50
2019-02-03T16:51:29.470Z,5.30
2019-02-03T16:53:59.733Z,6.07
2019-02-03T16:56:31.008Z,6.27
2019-02-03T16:59:01.235Z,6.60
2019-02-03T17:01:31.537Z,7.10
2019-02-03T17:04:01.736Z,6.60
2019-02-03T17:06:32.433Z,7.00
2019-02-03T17:09:03.477Z,6.23
2019-02-03T17:11:37.164Z,7.20
2019-02-03T17:14:07.636Z,7.00
2019-02-03T17:16:37.913Z,7.10
2019-02-03T17:19:08.675Z,7.10
2019-02-03T17:21:39.078Z,7.90
2019-02-03T17:24:09.339Z,6.90
2019-02-03T17:26:39.632Z,7.10
2019-02-03T17:29:09.842Z,7.10
2019-02-03T17:31:40.475Z,7.23
2019-02-03T17:34:11.850Z,7.33
2019-02-03T17:36:42.122Z,8.60
2019-02-03T17:39:12.629Z,13.47
2019-02-03T17:41:43.321Z,11.30
2019-02-03T17:44:19.654Z,8.70
2019-02-03T17:46:45.492Z,7.10
2019-02-03T17:49:16.752Z,8.07
2019-02-03T17:51:47.200Z,10.67
2019-02-03T17:54:17.403Z,15.23
2019-02-03T17:56:47.747Z,13.50
2019-02-03T17:59:17.961Z,14.83
2019-02-03T18:01:48.239Z,22.00
2019-02-03T18:04:18.711Z,10.50
2019-02-03T18:06:48.931Z,8.63
2019-02-03T18:09:20.133Z,8.00
2019-02-03T18:11:50.556Z,8.10
2019-02-03T18:14:24.548Z,8.60
2019-02-03T18:16:52.762Z,10.13
2019-02-03T18:19:22.995Z,8.90
2019-02-03T18:21:53.247Z,7.60
2019-02-03T18:24:23.547Z,9.00
2019-02-03T18:26:53.732Z,7.80
2019-02-03T18:29:24.020Z,7.70
2019-02-03T18:31:54.315Z,8.93
2019-02-03T18:34:24.614Z,11.40
2019-02-03T18:36:55.098Z,11.40
2019-02-03T18:39:25.402Z,12.13
2019-02-03T18:41:55.745Z,14.30
2019-02-03T18:44:35.711Z,13.80
2019-02-03T18:46:58.893Z,10.47
2019-02-03T18:49:30.440Z,9.43
2019-02-03T18:52:00.662Z,10.00
2019-02-03T18:54:30.918Z,9.83
2019-02-03T18:57:01.117Z,8.97
2019-02-03T18:59:31.303Z,10.70
2019-02-03T19:02:01.887Z,10.80
2019-02-03T19:04:32.062Z,11.90
2019-02-03T19:07:04.759Z,14.37
2019-02-03T19:09:35.007Z,14.17
2019-02-03T19:12:05.711Z,14.57
2019-02-03T19:14:46.551Z,13.07
2019-02-03T19:17:08.162Z,14.80
2019-02-03T19:19:38.429Z,15.13
2019-02-03T19:22:08.660Z,12.03
2019-02-03T19:24:38.861Z,10.90
2019-02-03T19:27:09.481Z,12.43
2019-02-03T19:29:39.759Z,10.20
2019-02-03T19:32:10.043Z,11.77
2019-02-03T19:34:40.229Z,12.37
2019-02-03T19:37:10.429Z,11.10
2019-02-03T19:39:41.127Z,12.10
2019-02-03T19:42:11.323Z,11.07
2019-02-03T19:44:41.542Z,14.53
2019-02-03T19:47:11.743Z,13.10
2019-02-03T19:49:46.575Z,13.70
2019-02-03T19:52:13.868Z,13.13
2019-02-03T19:54:46.966Z,14.00
2019-02-03T19:57:16.029Z,13.87
2019-02-03T19:59:47.194Z,13.33
2019-02-03T20:02:17.403Z,14.50
2019-02-03T20:04:47.637Z,11.77
2019-02-03T20:07:18.004Z,13.47
2019-02-03T20:09:48.208Z,13.43
2019-02-03T20:12:18.482Z,15.17
2019-02-03T20:14:48.708Z,12.60
2019-02-03T20:17:19.028Z,13.63
2019-02-03T20:19:49.307Z,14.07
2019-02-03T20:22:19.492Z,12.67
2019-02-03T20:24:49.725Z,13.00
2019-02-03T20:27:19.984Z,12.10
2019-02-03T20:29:50.359Z,12.57
2019-02-03T20:32:20.823Z,12.80
2019-02-03T20:34:51.002Z,12.30
2019-02-03T20:37:21.201Z,13.13
2019-02-03T20:40:01.331Z,13.83
2019-02-03T20:42:23.332Z,12.90
2019-02-03T20:44:54.012Z,12.70
2019-02-03T20:47:24.214Z,12.13
2019-02-03T20:49:54.521Z,10.90
2019-02-03T20:52:25.007Z,11.50
2019-02-03T20:54:55.246Z,11.87
2019-02-03T20:57:25.430Z,12.70
2019-02-03T20:59:55.654Z,11.23
2019-02-03T21:02:25.853Z,11.47
2019-02-03T21:04:56.023Z,10.90
2019-02-03T21:07:26.205Z,11.10
2019-02-03T21:09:56.483Z,12.47
2019-02-03T21:12:27.176Z,13.37
2019-02-03T21:14:57.354Z,13.60
2019-02-03T21:17:27.564Z,12.20
2019-02-03T21:19:57.751Z,13.33
2019-02-03T21:22:27.985Z,12.77
2019-02-03T21:24:58.568Z,12.37
2019-02-03T21:27:28.780Z,11.90
2019-02-03T21:29:58.988Z,12.10
2019-02-03T21:32:29.143Z,11.53
2019-02-03T21:34:59.339Z,11.27
2019-02-03T21:37:30.589Z,11.03
2019-02-03T21:40:00.807Z,11.10
2019-02-03T21:42:31.015Z,10.40
2019-02-03T21:45:01.191Z,12.17
2019-02-03T21:47:31.440Z,11.17
2019-02-03T21:50:01.644Z,10.63
2019-02-03T21:52:31.848Z,11.17
2019-02-03T21:55:02.118Z,10.80
2019-02-03T21:57:32.300Z,11.67
2019-02-03T22:00:02.472Z,9.87
2019-02-03T22:02:33.821Z,10.20
2019-02-03T22:05:04.787Z,9.77
2019-02-03T22:07:36.420Z,10.70
2019-02-03T22:10:08.687Z,11.30
2019-02-03T22:12:38.884Z,9.73
2019-02-03T22:15:09.260Z,10.40
2019-02-03T22:17:39.819Z,10.30
2019-02-03T22:20:13.371Z,10.87
2019-02-03T22:22:46.679Z,11.00
2019-02-03T22:25:17.156Z,10.30
2019-02-03T22:27:47.463Z,11.87
2019-02-03T22:30:29.063Z,11.47
2019-02-03T22:33:01.708Z,11.67
2019-02-03T22:35:31.884Z,12.30
2019-02-03T22:38:02.087Z,12.17
2019-02-03T22:40:32.245Z,12.47
2019-02-03T22:43:02.442Z,11.83
2019-02-03T22:45:32.751Z,12.50
2019-02-03T22:48:04.595Z,13.27
2019-02-03T22:50:35.311Z,13.83
2019-02-03T22:53:06.063Z,13.97
2019-02-03T22:55:38.603Z,13.20
2019-02-03T22:58:08.981Z,13.83
2019-02-03T23:01:04.663Z,13.83
2019-02-03T23:04:14.009Z,14.57
2019-02-03T23:06:46.912Z,13.83
2019-02-03T23:09:32.347Z,13.60
2019-02-03T23:12:04.156Z,15.10
2019-02-03T23:14:34.328Z,15.50
2019-02-03T23:17:04.596Z,14.53
2019-02-03T23:19:34.762Z,15.67
2019-02-03T23:22:05.119Z,15.90
2019-02-03T23:24:35.304Z,15.13
2019-02-03T23:27:06.044Z,17.37
2019-02-03T23:29:36.505Z,18.50
2019-02-03T23:32:06.886Z,18.80
2019-02-03T23:34:37.066Z,18.07
2019-02-03T23:37:07.203Z,19.20
2019-02-03T23:40:11.760Z,18.27
2019-02-03T23:42:42.039Z,19.67
2019-02-03T23:45:12.316Z,17.80
2019-02-03T23:47:42.520Z,20.33
2019-02-03T23:50:13.778Z,18.73
2019-02-03T23:52:43.946Z,19.83
2019-02-03T23:55:14.271Z,19.20
2019-02-03T23:57:44.852Z,20.60
